Time;durP1;ratioP1;P1;durP2;ratioP2;P2;SDS_P1;SDS_P2;PMS_P1;PMS_P2;Temp;Humidity;BMP_temperature;BMP_pressure;BME280_temperature;BME280_humidity;BME280_pressure;Samples;Min_cycle;Max_cycle;Signal;HPM_P1;HPM_P2
2023/12/15 00:02:08;;;;;;;1999.90;999.90;;;3.80;99.90;;;;;;5055060;28;20501;-77
2023/12/15 00:04:36;;;;;;;1999.90;999.90;;;3.90;99.90;;;;;;5051809;28;20433;-78
2023/12/15 00:07:03;;;;;;;1999.90;999.90;;;4.10;99.90;;;;;;5055009;28;20441;-77
2023/12/15 00:09:29;;;;;;;1999.90;999.90;;;4.20;99.90;;;;;;5054628;28;20464;-77
2023/12/15 00:11:56;;;;;;;1999.90;999.90;;;4.20;99.90;;;;;;5054558;28;20459;-76
2023/12/15 00:14:22;;;;;;;1999.90;999.90;;;4.20;99.90;;;;;;5055038;28;20409;-77
2023/12/15 00:16:49;;;;;;;1999.90;999.90;;;4.20;99.90;;;;;;5053628;28;20425;-79
2023/12/15 00:19:16;;;;;;;1999.90;999.90;;;4.00;99.90;;;;;;5053942;28;20861;-75
2023/12/15 00:21:44;;;;;;;1999.90;999.90;;;3.90;99.90;;;;;;5051292;28;20931;-75
2023/12/15 00:24:10;;;;;;;1999.90;999.90;;;3.90;99.90;;;;;;5051489;28;20418;-75
2023/12/15 00:26:37;;;;;;;1999.90;999.90;;;3.80;99.90;;;;;;5050799;28;20484;-76
2023/12/15 00:29:04;;;;;;;1999.90;999.90;;;3.80;99.90;;;;;;5049658;28;20430;-75
2023/12/15 00:31:31;;;;;;;1999.90;999.90;;;3.80;99.90;;;;;;5041668;28;20413;-76
2023/12/15 00:33:58;;;;;;;1999.90;999.90;;;3.80;99.90;;;;;;5049534;28;20405;-75
2023/12/15 00:36:25;;;;;;;1999.90;999.90;;;3.80;99.90;;;;;;5048926;28;20441;-75
2023/12/15 00:38:53;;;;;;;1999.90;999.90;;;3.90;99.90;;;;;;5048832;28;20748;-76
2023/12/15 00:41:20;;;;;;;1999.90;999.90;;;3.90;99.90;;;;;;5049331;28;20409;-76
2023/12/15 00:43:46;;;;;;;1999.90;999.90;;;4.00;99.90;;;;;;5049934;28;20417;-75
2023/12/15 00:46:13;;;;;;;1999.90;999.90;;;4.20;99.90;;;;;;5049889;28;20405;-75
2023/12/15 00:48:39;;;;;;;1999.90;999.90;;;4.30;99.90;;;;;;5049288;28;20957;-75
2023/12/15 00:51:07;;;;;;;1999.90;999.90;;;4.30;99.90;;;;;;5052035;28;20460;-75
2023/12/15 00:53:33;;;;;;;1999.90;999.90;;;4.30;99.90;;;;;;5049826;28;20463;-75
2023/12/15 00:56:02;;;;;;;1999.90;999.90;;;4.40;99.90;;;;;;5049827;28;20409;-75
2023/12/15 00:58:29;;;;;;;1999.90;999.90;;;4.40;99.90;;;;;;5049540;28;20467;-75
2023/12/15 01:00:55;;;;;;;1999.90;999.90;;;4.50;99.90;;;;;;5049687;28;20915;-76
2023/12/15 01:03:22;;;;;;;1999.90;999.90;;;4.50;99.90;;;;;;5049449;28;20846;-75
2023/12/15 01:05:50;;;;;;;1999.90;999.90;;;4.50;99.90;;;;;;5044997;28;20425;-74
2023/12/15 01:08:16;;;;;;;1999.90;999.90;;;4.50;99.90;;;;;;5049495;28;20508;-75
2023/12/15 01:10:43;;;;;;;1999.90;999.90;;;4.40;99.90;;;;;;5049634;28;20433;-75
2023/12/15 01:13:11;;;;;;;1999.90;999.90;;;4.40;99.90;;;;;;5049330;28;20443;-76
2023/12/15 01:15:38;;;;;;;1999.90;999.90;;;4.50;99.90;;;;;;5049898;28;20409;-76
2023/12/15 01:18:04;;;;;;;1999.90;999.90;;;4.50;99.90;;;;;;5053350;28;20405;-76
2023/12/15 01:20:31;;;;;;;1999.90;999.90;;;4.50;99.90;;;;;;5046406;28;20531;-75
2023/12/15 01:22:57;;;;;;;1999.90;999.90;;;4.50;99.90;;;;;;5051744;28;20409;-76
2023/12/15 01:25:24;;;;;;;1999.90;999.90;;;4.50;99.90;;;;;;5053374;28;20504;-76
2023/12/15 01:27:51;;;;;;;1999.90;999.90;;;4.40;99.90;;;;;;5053142;28;20462;-75
2023/12/15 01:30:19;;;;;;;1999.90;999.90;;;4.40;99.90;;;;;;5051772;28;20818;-76
2023/12/15 01:32:46;;;;;;;1999.90;999.90;;;4.30;99.90;;;;;;5051872;28;20433;-75
2023/12/15 01:35:12;;;;;;;1999.90;999.90;;;4.30;99.90;;;;;;5053748;28;20433;-76
2023/12/15 01:37:39;;;;;;;1999.90;999.90;;;4.30;99.90;;;;;;5053356;28;20458;-75
2023/12/15 01:40:06;;;;;;;1999.90;999.90;;;4.30;99.90;;;;;;5052721;28;20822;-76
2023/12/15 01:42:33;;;;;;;1999.90;999.90;;;4.20;99.90;;;;;;5052754;28;20535;-76
2023/12/15 01:45:00;;;;;;;1999.90;999.90;;;4.30;99.90;;;;;;5048187;28;20437;-75
2023/12/15 01:47:28;;;;;;;1999.90;999.90;;;4.30;99.90;;;;;;5052775;28;20459;-75
2023/12/15 01:49:55;;;;;;;1999.90;999.90;;;4.40;99.90;;;;;;5052465;28;20425;-75
2023/12/15 01:52:21;;;;;;;1999.90;999.90;;;4.30;99.90;;;;;;5052776;28;20417;-75
2023/12/15 01:54:48;;;;;;;1999.90;999.90;;;4.50;99.90;;;;;;5052599;28;20463;-76
2023/12/15 01:57:15;;;;;;;1999.90;999.90;;;4.50;99.90;;;;;;5048100;28;20431;-75
2023/12/15 01:59:43;;;;;;;1999.90;999.90;;;4.50;99.90;;;;;;5052399;28;20409;-75
2023/12/15 02:02:10;;;;;;;1999.90;999.90;;;4.40;99.90;;;;;;5052807;28;20496;-75
2023/12/15 02:04:38;;;;;;;1999.90;999.90;;;4.50;99.90;;;;;;5053486;28;20425;-76
2023/12/15 02:07:04;;;;;;;1999.90;999.90;;;4.40;99.90;;;;;;5053840;28;20928;-75
2023/12/15 02:09:31;;;;;;;1999.90;999.90;;;4.10;99.90;;;;;;5055307;28;20429;-77
2023/12/15 02:11:58;;;;;;;1999.90;999.90;;;4.20;99.90;;;;;;5053512;28;20433;-77
2023/12/15 02:14:25;;;;;;;1999.90;999.90;;;4.10;99.90;;;;;;5056119;28;20413;-76
2023/12/15 02:16:51;;;;;;;1999.90;999.90;;;4.30;99.90;;;;;;5056367;28;20413;-77
2023/12/15 02:19:18;;;;;;;1999.90;999.90;;;4.50;99.90;;;;;;5058771;28;20471;-76
2023/12/15 02:21:46;;;;;;;1999.90;999.90;;;4.50;99.90;;;;;;5059228;28;20425;-77
2023/12/15 02:24:14;;;;;;;1999.90;999.90;;;4.40;99.90;;;;;;5057202;28;20413;-77
2023/12/15 02:26:41;;;;;;;1999.90;999.90;;;4.30;99.90;;;;;;5052863;28;20435;-77
2023/12/15 02:29:08;;;;;;;1999.90;999.90;;;4.10;99.90;;;;;;5052229;28;20845;-75
2023/12/15 02:31:34;;;;;;;1999.90;999.90;;;3.90;99.90;;;;;;5053522;28;20405;-77
2023/12/15 02:34:01;;;;;;;1999.90;999.90;;;3.70;99.90;;;;;;5055281;28;20447;-76
2023/12/15 02:36:28;;;;;;;1999.90;999.90;;;3.60;99.90;;;;;;5055269;28;20487;-77
2023/12/15 02:38:55;;;;;;;1999.90;999.90;;;3.50;99.90;;;;;;5055051;28;20894;-77
2023/12/15 02:41:23;;;;;;;1999.90;999.90;;;3.40;99.90;;;;;;5052614;28;20437;-77
2023/12/15 02:43:49;;;;;;;1999.90;999.90;;;3.40;99.90;;;;;;5055171;28;20899;-75
2023/12/15 02:46:16;;;;;;;1999.90;999.90;;;3.40;99.90;;;;;;5055744;28;20418;-77
2023/12/15 02:48:43;;;;;;;1999.90;999.90;;;3.20;99.90;;;;;;5054759;28;21149;-73
2023/12/15 02:51:10;;;;;;;1999.90;999.90;;;3.20;99.90;;;;;;5047714;28;20861;-74
2023/12/15 02:53:37;;;;;;;1999.90;999.90;;;3.30;99.90;;;;;;5043925;28;20872;-76
2023/12/15 02:56:05;;;;;;;1999.90;999.90;;;3.20;99.90;;;;;;5049073;28;20476;-73
2023/12/15 02:58:33;;;;;;;1999.90;999.90;;;3.20;99.90;;;;;;5048546;28;20503;-78
2023/12/15 03:01:00;;;;;;;1999.90;999.90;;;3.10;99.90;;;;;;5052566;28;20437;-77
2023/12/15 03:03:26;;;;;;;1999.90;999.90;;;3.00;99.90;;;;;;5053478;28;20819;-76
2023/12/15 03:05:53;;;;;;;1999.90;999.90;;;3.00;99.90;;;;;;5052963;28;20420;-76
2023/12/15 03:08:20;;;;;;;1999.90;999.90;;;3.10;99.90;;;;;;5052816;28;21081;-74
2023/12/15 03:10:46;;;;;;;1999.90;999.90;;;3.00;99.90;;;;;;5052887;28;20476;-79
2023/12/15 03:13:13;;;;;;;1999.90;999.90;;;3.10;99.90;;;;;;5053495;28;20796;-75
2023/12/15 03:15:42;;;;;;;1999.90;999.90;;;3.10;99.90;;;;;;5050964;28;20444;-76
2023/12/15 03:18:08;;;;;;;1999.90;999.90;;;3.20;99.90;;;;;;5052478;28;20413;-77
2023/12/15 03:20:35;;;;;;;1999.90;999.90;;;3.30;99.90;;;;;;5052269;28;20417;-77
2023/12/15 03:23:02;;;;;;;1999.90;999.90;;;3.40;99.90;;;;;;5051168;28;20475;-75
2023/12/15 03:25:29;;;;;;;1999.90;999.90;;;3.50;99.90;;;;;;5051551;28;20420;-77
2023/12/15 03:27:56;;;;;;;1999.90;999.90;;;3.50;99.90;;;;;;5051645;28;20413;-76
2023/12/15 03:30:22;;;;;;;1999.90;999.90;;;3.50;99.90;;;;;;5052379;28;20537;-77
2023/12/15 03:32:50;;;;;;;1999.90;999.90;;;3.60;99.90;;;;;;5051579;28;20467;-76
2023/12/15 03:35:17;;;;;;;1999.90;999.90;;;3.50;99.90;;;;;;5049891;28;20410;-76
2023/12/15 03:37:44;;;;;;;1999.90;999.90;;;3.70;99.90;;;;;;5051790;28;20417;-76
2023/12/15 03:40:12;;;;;;;1999.90;999.90;;;4.00;99.90;;;;;;5051481;28;20451;-77
2023/12/15 03:42:38;;;;;;;1999.90;999.90;;;4.20;99.90;;;;;;5052750;28;20471;-76
2023/12/15 03:45:06;;;;;;;1999.90;999.90;;;3.90;99.90;;;;;;5045182;28;20508;-76
2023/12/15 03:47:33;;;;;;;1999.90;999.90;;;3.70;99.90;;;;;;5051163;28;20409;-77
2023/12/15 03:50:01;;;;;;;1999.90;999.90;;;3.70;99.90;;;;;;5052596;28;20426;-77
2023/12/15 03:52:27;;;;;;;1999.90;999.90;;;3.60;99.90;;;;;;5052816;28;20449;-77
2023/12/15 03:54:54;;;;;;;1999.90;999.90;;;3.60;99.90;;;;;;5052944;28;20463;-77
2023/12/15 03:57:21;;;;;;;1999.90;999.90;;;3.50;99.90;;;;;;5052372;28;20413;-77
2023/12/15 03:59:48;;;;;;;1999.90;999.90;;;3.50;99.90;;;;;;5052247;28;20433;-76
2023/12/15 04:02:15;;;;;;;1999.90;999.90;;;3.40;99.90;;;;;;5051884;28;20420;-77
2023/12/15 04:04:42;;;;;;;1999.90;999.90;;;3.40;99.90;;;;;;5052674;28;20499;-77
2023/12/15 04:07:10;;;;;;;1999.90;999.90;;;3.30;99.90;;;;;;5051361;28;20425;-77
2023/12/15 04:09:37;;;;;;;1999.90;999.90;;;3.40;99.90;;;;;;5052271;28;20417;-76
2023/12/15 04:12:04;;;;;;;1999.90;999.90;;;3.40;99.90;;;;;;5053019;28;20416;-77
2023/12/15 04:14:32;;;;;;;1999.90;999.90;;;3.40;99.90;;;;;;5051439;28;20433;-76
2023/12/15 04:17:00;;;;;;;1999.90;999.90;;;3.40;99.90;;;;;;5051628;28;20416;-77
2023/12/15 04:19:27;;;;;;;1999.90;999.90;;;3.50;99.90;;;;;;5052354;28;20480;-76
2023/12/15 04:21:55;;;;;;;1999.90;999.90;;;3.40;99.90;;;;;;5052091;28;20448;-77
2023/12/15 04:24:23;;;;;;;1999.90;999.90;;;3.50;99.90;;;;;;5051770;28;20496;-76
2023/12/15 04:26:50;;;;;;;1999.90;999.90;;;3.50;99.90;;;;;;5051544;28;20788;-75
2023/12/15 04:29:16;;;;;;;1999.90;999.90;;;3.60;99.90;;;;;;5048533;28;20440;-77
2023/12/15 04:31:43;;;;;;;1999.90;999.90;;;3.80;99.90;;;;;;5051422;28;20846;-77
2023/12/15 04:34:10;;;;;;;1999.90;999.90;;;4.00;99.90;;;;;;5051994;28;20424;-77
2023/12/15 04:36:38;;;;;;;1999.90;999.90;;;4.00;99.90;;;;;;5052688;28;20409;-76
2023/12/15 04:39:05;;;;;;;1999.90;999.90;;;3.90;99.90;;;;;;5050926;28;20994;-79
2023/12/15 04:41:33;;;;;;;1999.90;999.90;;;3.80;99.90;;;;;;5052912;28;20410;-78
2023/12/15 04:43:59;;;;;;;1999.90;999.90;;;3.90;99.90;;;;;;5045702;28;20959;-76
2023/12/15 04:46:27;;;;;;;1999.90;999.90;;;4.10;99.90;;;;;;5050673;28;20421;-76
2023/12/15 04:48:56;;;;;;;1999.90;999.90;;;4.20;99.90;;;;;;5051879;28;20827;-76
2023/12/15 04:51:22;;;;;;;1999.90;999.90;;;4.20;99.90;;;;;;5050695;28;20968;-76
2023/12/15 04:53:50;;;;;;;1999.90;999.90;;;4.20;99.90;;;;;;5055333;28;20425;-75
2023/12/15 04:56:17;;;;;;;1999.90;999.90;;;4.30;99.90;;;;;;5055102;28;20425;-75
2023/12/15 04:58:45;;;;;;;1999.90;999.90;;;4.40;99.90;;;;;;5055704;28;20413;-75
2023/12/15 05:01:13;;;;;;;1999.90;999.90;;;4.50;99.90;;;;;;5050505;28;20433;-77
2023/12/15 05:03:40;;;;;;;1999.90;999.90;;;4.60;99.90;;;;;;5054692;28;20416;-76
2023/12/15 05:06:16;;;;;;;1999.90;999.90;;;4.70;99.90;;;;;;5052313;28;20459;-77
2023/12/15 05:08:42;;;;;;;1999.90;999.90;;;4.70;99.90;;;;;;5059066;28;20935;-77
2023/12/15 05:11:09;;;;;;;1999.90;999.90;;;4.60;99.90;;;;;;5055187;28;20915;-76
2023/12/15 05:13:36;;;;;;;1999.90;999.90;;;4.70;99.90;;;;;;5055329;28;20412;-78
2023/12/15 05:16:05;;;;;;;1999.90;999.90;;;4.70;99.90;;;;;;5055689;28;20405;-77
2023/12/15 05:18:31;;;;;;;1999.90;999.90;;;4.80;99.90;;;;;;5054978;28;20420;-77
2023/12/15 05:20:58;;;;;;;1999.90;999.90;;;4.90;99.90;;;;;;5052310;28;20431;-74
2023/12/15 05:23:25;;;;;;;1999.90;999.90;;;5.00;99.90;;;;;;5057482;28;20470;-77
2023/12/15 05:25:51;;;;;;;1999.90;999.90;;;4.90;99.90;;;;;;5051844;28;20896;-76
2023/12/15 05:28:18;;;;;;;1999.90;999.90;;;4.90;99.90;;;;;;5054460;28;20441;-76
2023/12/15 05:30:45;;;;;;;1999.90;999.90;;;5.00;99.90;;;;;;5055388;28;20436;-73
2023/12/15 05:33:13;;;;;;;1999.90;999.90;;;5.00;99.90;;;;;;5054457;28;20413;-71
2023/12/15 05:35:40;;;;;;;1999.90;999.90;;;5.00;99.90;;;;;;5056227;28;20428;-74
2023/12/15 05:38:07;;;;;;;1999.90;999.90;;;5.00;99.90;;;;;;5052318;28;20429;-74
2023/12/15 05:40:33;;;;;;;1999.90;999.90;;;5.00;99.90;;;;;;5052330;28;20416;-71
2023/12/15 05:43:00;;;;;;;1999.90;999.90;;;5.10;99.90;;;;;;5054922;28;20450;-74
2023/12/15 05:45:28;;;;;;;1999.90;999.90;;;5.00;99.90;;;;;;5055170;28;20420;-75
2023/12/15 05:47:55;;;;;;;1999.90;999.90;;;5.00;99.90;;;;;;5054614;28;20421;-76
2023/12/15 05:50:24;;;;;;;1999.90;999.90;;;5.10;99.90;;;;;;5053596;28;20513;-71
2023/12/15 05:52:50;;;;;;;1999.90;999.90;;;5.10;99.90;;;;;;5051831;28;20838;-76
2023/12/15 05:55:17;;;;;;;1999.90;999.90;;;5.20;99.90;;;;;;5054099;28;20417;-77
2023/12/15 05:57:44;;;;;;;1999.90;999.90;;;5.20;99.90;;;;;;5055607;28;20926;-77
2023/12/15 06:00:12;;;;;;;1999.90;999.90;;;5.20;99.90;;;;;;5054206;28;20486;-79
2023/12/15 06:02:40;;;;;;;1999.90;999.90;;;5.30;99.90;;;;;;5054211;28;20413;-76
2023/12/15 06:05:07;;;;;;;1999.90;999.90;;;5.30;99.90;;;;;;5054285;28;20795;-75
2023/12/15 06:07:35;;;;;;;1999.90;999.90;;;5.60;99.90;;;;;;5053355;28;20433;-77
2023/12/15 06:10:02;;;;;;;1999.90;999.90;;;5.20;99.90;;;;;;5053767;28;20444;-75
2023/12/15 06:12:28;;;;;;;1999.90;999.90;;;5.20;99.90;;;;;;5055203;28;20417;-75
2023/12/15 06:14:55;;;;;;;1999.90;999.90;;;5.20;99.90;;;;;;5055033;28;20470;-75
2023/12/15 06:17:22;;;;;;;1999.90;999.90;;;5.20;99.90;;;;;;5050066;28;20520;-75
2023/12/15 06:19:48;;;;;;;1999.90;999.90;;;5.20;99.90;;;;;;5053712;28;20417;-77
2023/12/15 06:22:15;;;;;;;1999.90;999.90;;;5.30;99.90;;;;;;5053471;28;20464;-71
2023/12/15 06:24:43;;;;;;;1999.90;999.90;;;5.40;99.90;;;;;;5053543;28;20413;-73
2023/12/15 06:27:10;;;;;;;1999.90;999.90;;;5.40;99.90;;;;;;5053826;28;20422;-72
2023/12/15 06:29:37;;;;;;;1999.90;999.90;;;5.50;99.90;;;;;;5054197;28;20409;-77
2023/12/15 06:32:03;;;;;;;1999.90;999.90;;;5.50;99.90;;;;;;5049971;28;20489;-72
2023/12/15 06:34:30;;;;;;;1999.90;999.90;;;5.60;99.90;;;;;;5052510;28;20459;-72
2023/12/15 06:36:57;;;;;;;1999.90;999.90;;;5.60;99.90;;;;;;5053689;28;20421;-74
2023/12/15 06:39:24;;;;;;;1999.90;999.90;;;5.60;99.90;;;;;;5050796;28;20420;-73
2023/12/15 06:41:52;;;;;;;1999.90;999.90;;;5.60;99.90;;;;;;5050217;28;20429;-74
2023/12/15 06:44:19;;;;;;;1999.90;999.90;;;5.60;99.90;;;;;;5051487;28;20899;-75
2023/12/15 06:46:46;;;;;;;1999.90;999.90;;;5.60;99.90;;;;;;5052701;28;20519;-75
2023/12/15 06:49:13;;;;;;;1999.90;999.90;;;5.60;99.90;;;;;;5052864;28;20918;-76
2023/12/15 06:51:43;;;;;;;1999.90;999.90;;;5.70;99.90;;;;;;5051201;28;20782;-76
2023/12/15 06:54:10;;;;;;;1999.90;999.90;;;5.60;99.90;;;;;;5043327;28;20433;-76
2023/12/15 06:56:38;;;;;;;1999.90;999.90;;;5.70;99.90;;;;;;5052852;28;20405;-76
2023/12/15 06:59:06;;;;;;;1999.90;999.90;;;5.70;99.90;;;;;;5053304;28;20904;-74
2023/12/15 07:01:33;;;;;;;1999.90;999.90;;;5.70;99.90;;;;;;5053189;28;20409;-74
2023/12/15 07:04:00;;;;;;;1999.90;999.90;;;5.70;99.90;;;;;;5052691;28;20413;-76
2023/12/15 07:06:27;;;;;;;1999.90;999.90;;;5.80;99.90;;;;;;5052787;28;20961;-77
2023/12/15 07:08:54;;;;;;;1999.90;999.90;;;5.80;99.90;;;;;;5051216;28;20908;-76
2023/12/15 07:11:21;;;;;;;1999.90;999.90;;;5.80;99.90;;;;;;5051836;28;21095;-75
2023/12/15 07:13:48;;;;;;;1999.90;999.90;;;5.80;99.90;;;;;;5044603;28;20459;-75
2023/12/15 07:16:16;;;;;;;1999.90;999.90;;;5.80;99.90;;;;;;5051842;28;20417;-76
2023/12/15 07:18:42;;;;;;;1999.90;999.90;;;5.90;99.90;;;;;;5052531;28;20512;-76
2023/12/15 07:21:09;;;;;;;1999.90;999.90;;;5.90;99.90;;;;;;5051676;28;20459;-75
2023/12/15 07:23:36;;;;;;;1999.90;999.90;;;5.80;99.90;;;;;;5050125;28;20793;-75
2023/12/15 07:26:03;;;;;;;1999.90;999.90;;;5.70;99.90;;;;;;5046834;28;20409;-73
2023/12/15 07:28:29;;;;;;;1999.90;999.90;;;5.80;99.90;;;;;;5050775;28;20413;-75
2023/12/15 07:30:56;;;;;;;1999.90;999.90;;;5.80;99.90;;;;;;5050945;28;20437;-75
2023/12/15 07:33:24;;;;;;;1999.90;999.90;;;5.80;99.90;;;;;;5050256;28;20479;-75
2023/12/15 07:35:51;;;;;;;1999.90;999.90;;;5.80;99.90;;;;;;5049764;28;20853;-76
2023/12/15 07:38:17;;;;;;;1999.90;999.90;;;5.90;99.90;;;;;;5048682;28;20435;-75
2023/12/15 07:40:44;;;;;;;1999.90;999.90;;;5.90;99.90;;;;;;5050685;28;20409;-75
2023/12/15 07:43:10;;;;;;;1999.90;999.90;;;5.80;99.90;;;;;;5047947;28;20434;-76
2023/12/15 07:45:37;;;;;;;1999.90;999.90;;;5.80;99.90;;;;;;5056148;28;20918;-75
2023/12/15 07:48:04;;;;;;;1999.90;999.90;;;6.10;99.90;;;;;;5049579;28;20459;-76
2023/12/15 07:50:32;;;;;;;1999.90;999.90;;;6.20;99.90;;;;;;5051199;28;20466;-76
2023/12/15 07:52:59;;;;;;;1999.90;999.90;;;6.30;99.90;;;;;;5047700;28;20417;-75
2023/12/15 07:55:26;;;;;;;1999.90;999.90;;;6.30;99.90;;;;;;5048351;28;20418;-76
2023/12/15 07:57:52;;;;;;;1999.90;999.90;;;6.20;99.90;;;;;;5050544;28;20431;-75
2023/12/15 08:00:19;;;;;;;1999.90;999.90;;;6.20;99.90;;;;;;5052207;28;20500;-75
2023/12/15 08:02:46;;;;;;;1999.90;999.90;;;6.30;99.90;;;;;;5052013;28;21023;-77
2023/12/15 08:05:12;;;;;;;1999.90;999.90;;;6.30;99.90;;;;;;5051544;28;20972;-76
2023/12/15 08:07:42;;;;;;;1999.90;999.90;;;6.30;99.90;;;;;;5050213;28;20413;-75
2023/12/15 08:10:10;;;;;;;1999.90;999.90;;;6.40;99.90;;;;;;5051021;28;20414;-75
2023/12/15 08:12:36;;;;;;;1999.90;999.90;;;6.50;99.90;;;;;;5045906;28;20515;-75
2023/12/15 08:15:04;;;;;;;1999.90;999.90;;;6.50;99.90;;;;;;5049626;28;20440;-76
2023/12/15 08:17:30;;;;;;;1999.90;999.90;;;6.50;99.90;;;;;;5051830;28;20826;-77
2023/12/15 08:19:57;;;;;;;1999.90;999.90;;;6.50;99.90;;;;;;5051200;28;20470;-76
2023/12/15 08:22:23;;;;;;;1999.90;999.90;;;6.50;99.90;;;;;;5053775;28;20410;-77
2023/12/15 08:24:51;;;;;;;1999.90;999.90;;;6.40;99.90;;;;;;5053098;28;20823;-75
2023/12/15 08:27:20;;;;;;;1999.90;999.90;;;6.50;99.90;;;;;;5053118;28;20409;-76
2023/12/15 08:29:47;;;;;;;1999.90;999.90;;;6.40;99.90;;;;;;5048961;28;20436;-75
2023/12/15 08:32:13;;;;;;;1999.90;999.90;;;6.40;99.90;;;;;;5051486;28;20815;-77
2023/12/15 08:34:42;;;;;;;1999.90;999.90;;;6.30;99.90;;;;;;5050136;28;20424;-76
2023/12/15 08:37:08;;;;;;;1999.90;999.90;;;6.30;99.90;;;;;;5050528;28;20830;-76
2023/12/15 08:39:35;;;;;;;1999.90;999.90;;;6.40;99.90;;;;;;5051802;28;20417;-77
2023/12/15 08:42:04;;;;;;;1999.90;999.90;;;6.40;99.90;;;;;;5051999;28;20410;-75
2023/12/15 08:44:31;;;;;;;1999.90;999.90;;;6.50;99.90;;;;;;5051333;28;20433;-77
2023/12/15 08:46:57;;;;;;;1999.90;999.90;;;6.50;99.90;;;;;;5050724;28;20440;-77
2023/12/15 08:49:24;;;;;;;1999.90;999.90;;;6.60;99.90;;;;;;5052674;28;20424;-75
2023/12/15 08:51:51;;;;;;;1999.90;999.90;;;6.60;99.90;;;;;;5051120;28;20436;-76
2023/12/15 08:54:17;;;;;;;1999.90;999.90;;;6.60;99.90;;;;;;5050672;28;20409;-77
2023/12/15 08:56:44;;;;;;;1999.90;999.90;;;6.60;99.90;;;;;;5045163;28;20919;-71
2023/12/15 08:59:12;;;;;;;1999.90;999.90;;;6.60;99.90;;;;;;5050223;28;20475;-76
2023/12/15 09:01:38;;;;;;;1999.90;999.90;;;6.70;99.90;;;;;;5047525;28;20425;-77
2023/12/15 09:04:05;;;;;;;1999.90;999.90;;;6.60;99.90;;;;;;5051001;28;20989;-76
2023/12/15 09:06:32;;;;;;;1999.90;999.90;;;6.60;99.90;;;;;;5050922;28;20443;-75
2023/12/15 09:08:58;;;;;;;1999.90;999.90;;;6.70;99.90;;;;;;5043232;28;20410;-76
2023/12/15 09:11:25;;;;;;;1999.90;999.90;;;6.60;99.90;;;;;;5052039;28;20429;-76
2023/12/15 09:13:53;;;;;;;1999.90;999.90;;;6.70;99.90;;;;;;5051671;28;20487;-77
2023/12/15 09:16:21;;;;;;;1999.90;999.90;;;6.50;99.90;;;;;;5047694;28;20437;-73
2023/12/15 09:18:48;;;;;;;1999.90;999.90;;;6.70;99.90;;;;;;5052224;28;20552;-72
2023/12/15 09:21:14;;;;;;;1999.90;999.90;;;6.70;99.90;;;;;;5044195;28;20416;-78
2023/12/15 09:23:41;;;;;;;1999.90;999.90;;;6.70;99.90;;;;;;5052178;28;20776;-75
2023/12/15 09:26:08;;;;;;;1999.90;999.90;;;6.80;99.90;;;;;;5050971;28;20437;-71
2023/12/15 09:28:34;;;;;;;1999.90;999.90;;;6.80;99.90;;;;;;5046300;28;20427;-76
2023/12/15 09:31:02;;;;;;;1999.90;999.90;;;6.90;99.90;;;;;;5046212;28;20413;-76
2023/12/15 09:33:29;;;;;;;1999.90;999.90;;;7.00;99.90;;;;;;5050471;28;20459;-75
2023/12/15 09:35:56;;;;;;;1999.90;999.90;;;7.00;99.90;;;;;;5050866;28;20475;-75
2023/12/15 09:38:23;;;;;;;1999.90;999.90;;;7.10;99.90;;;;;;5052562;28;20421;-75
2023/12/15 09:40:50;;;;;;;1999.90;999.90;;;7.00;99.90;;;;;;5054807;28;20416;-74
2023/12/15 09:43:16;;;;;;;1999.90;999.90;;;7.00;99.90;;;;;;5053857;28;20429;-75
2023/12/15 09:45:43;;;;;;;1999.90;999.90;;;7.00;99.90;;;;;;5054628;28;20455;-76
2023/12/15 09:48:14;;;;;;;1999.90;999.90;;;6.90;99.90;;;;;;5054926;28;20409;-77
2023/12/15 09:50:50;;;;;;;1999.90;999.90;;;6.90;99.90;;;;;;5054116;28;20787;-75
2023/12/15 09:53:17;;;;;;;1999.90;999.90;;;7.00;99.90;;;;;;5044820;28;20427;-74
2023/12/15 09:55:44;;;;;;;1999.90;999.90;;;7.10;99.90;;;;;;5049008;28;20490;-75
2023/12/15 09:58:11;;;;;;;1999.90;999.90;;;7.10;99.90;;;;;;5053293;28;20455;-75
2023/12/15 10:00:39;;;;;;;1999.90;999.90;;;7.10;99.90;;;;;;5052898;28;20437;-76
2023/12/15 10:03:05;;;;;;;1999.90;999.90;;;7.10;99.90;;;;;;5053339;28;20401;-75
2023/12/15 10:05:32;;;;;;;1999.90;999.90;;;7.10;99.90;;;;;;5052550;28;20443;-75
2023/12/15 10:08:01;;;;;;;1999.90;999.90;;;7.20;99.90;;;;;;5052299;28;20418;-75
2023/12/15 10:10:27;;;;;;;1999.90;999.90;;;7.20;99.90;;;;;;5053972;28;20752;-75
2023/12/15 10:12:55;;;;;;;1999.90;999.90;;;7.20;99.90;;;;;;5054269;28;20438;-76
2023/12/15 10:15:22;;;;;;;1999.90;999.90;;;7.10;99.90;;;;;;5051754;28;20512;-73
2023/12/15 10:17:49;;;;;;;1999.90;999.90;;;7.10;99.90;;;;;;5052450;28;20479;-73
2023/12/15 10:20:17;;;;;;;1999.90;999.90;;;7.20;99.90;;;;;;5053361;28;20413;-76
2023/12/15 10:22:43;;;;;;;1999.90;999.90;;;7.10;99.90;;;;;;5048331;28;20980;-75
2023/12/15 10:25:21;;;;;;;1999.90;999.90;;;7.20;99.90;;;;;;5052670;28;20964;-76
2023/12/15 10:27:49;;;;;;;1999.90;999.90;;;7.20;99.90;;;;;;5049011;28;20907;-78
2023/12/15 10:30:16;;;;;;;1999.90;999.90;;;7.30;99.90;;;;;;5048310;28;20500;-71
2023/12/15 10:32:43;;;;;;;1999.90;999.90;;;7.20;99.90;;;;;;5046119;28;20904;-74
2023/12/15 10:35:10;;;;;;;1999.90;999.90;;;7.30;99.90;;;;;;5051631;28;20443;-74
2023/12/15 10:37:37;;;;;;;1999.90;999.90;;;7.40;99.90;;;;;;5052205;28;20789;-75
2023/12/15 10:40:05;;;;;;;1999.90;999.90;;;7.40;99.90;;;;;;5044531;28;20490;-74
2023/12/15 10:42:33;;;;;;;1999.90;999.90;;;7.50;99.90;;;;;;5051306;28;20417;-75
2023/12/15 10:45:03;;;;;;;1999.90;999.90;;;7.60;99.90;;;;;;5046339;28;20867;-75
2023/12/15 10:47:31;;;;;;;1999.90;999.90;;;7.60;99.90;;;;;;5051979;28;20486;-75
2023/12/15 10:49:59;;;;;;;1999.90;999.90;;;7.60;99.90;;;;;;5052405;28;20926;-75
2023/12/15 10:52:26;;;;;;;1999.90;999.90;;;7.60;99.90;;;;;;5052147;28;20796;-75
2023/12/15 10:54:54;;;;;;;1999.90;999.90;;;7.60;99.90;;;;;;5052062;28;20413;-76
2023/12/15 10:57:22;;;;;;;1999.90;999.90;;;7.70;99.90;;;;;;5051666;28;20963;-76
2023/12/15 10:59:50;;;;;;;1999.90;999.90;;;7.70;99.90;;;;;;5051713;28;20886;-75
2023/12/15 11:02:20;;;;;;;1999.90;999.90;;;7.70;99.90;;;;;;5051655;28;20409;-75
2023/12/15 11:04:48;;;;;;;1999.90;999.90;;;7.80;99.90;;;;;;5051640;28;20796;-74
2023/12/15 11:07:15;;;;;;;1999.90;999.90;;;7.90;99.90;;;;;;5051359;28;20409;-75
2023/12/15 11:09:42;;;;;;;1999.90;999.90;;;8.00;99.90;;;;;;5046834;28;20411;-75
2023/12/15 11:12:23;;;;;;;1999.90;999.90;;;8.00;99.90;;;;;;5047602;28;20447;-75
2023/12/15 11:14:58;;;;;;;1999.90;999.90;;;8.10;99.90;;;;;;5042003;28;20430;-74
2023/12/15 11:17:26;;;;;;;1999.90;999.90;;;8.00;99.90;;;;;;5050000;28;20467;-75
2023/12/15 11:19:58;;;;;;;1999.90;999.90;;;8.10;99.90;;;;;;5051365;28;20417;-75
2023/12/15 11:22:28;;;;;;;1999.90;999.90;;;8.30;99.90;;;;;;5051482;28;20428;-75
2023/12/15 11:24:55;;;;;;;1999.90;999.90;;;8.30;99.90;;;;;;5043274;28;20413;-75
2023/12/15 11:27:22;;;;;;;1999.90;999.90;;;8.40;99.90;;;;;;5051128;28;20957;-75
2023/12/15 11:29:49;;;;;;;1999.90;999.90;;;8.50;99.90;;;;;;5051096;28;20491;-74
2023/12/15 11:32:34;;;;;;;1999.90;999.90;;;8.50;99.90;;;;;;5050674;28;20429;-75
2023/12/15 11:35:01;;;;;;;1999.90;999.90;;;8.60;99.90;;;;;;5048060;28;20428;-74
2023/12/15 11:37:29;;;;;;;1999.90;999.90;;;8.70;99.90;;;;;;5049914;28;20409;-75
2023/12/15 11:39:56;;;;;;;1999.90;999.90;;;8.80;99.90;;;;;;5052362;28;20447;-76
2023/12/15 11:42:23;;;;;;;1999.90;999.90;;;8.80;99.90;;;;;;5049810;28;20416;-76
2023/12/15 11:44:50;;;;;;;1999.90;999.90;;;8.80;99.90;;;;;;5047528;28;21001;-73
2023/12/15 11:47:17;;;;;;;1999.90;999.90;;;8.70;99.90;;;;;;5050604;28;20820;-75
2023/12/15 11:49:46;;;;;;;1999.90;999.90;;;8.60;99.90;;;;;;5042363;28;21135;-75
2023/12/15 11:52:14;;;;;;;1999.90;999.90;;;8.50;99.90;;;;;;5057516;28;20427;-76
2023/12/15 11:54:41;;;;;;;1999.90;999.90;;;8.40;99.90;;;;;;5042750;28;20417;-76
2023/12/15 11:57:08;;;;;;;1999.90;999.90;;;8.20;99.90;;;;;;5050082;28;20432;-71
2023/12/15 11:59:36;;;;;;;1999.90;999.90;;;8.20;99.90;;;;;;5050993;28;20409;-76
2023/12/15 12:02:02;;;;;;;1999.90;999.90;;;8.20;99.90;;;;;;5042426;28;20493;-76
2023/12/15 12:04:30;;;;;;;1999.90;999.90;;;8.20;99.90;;;;;;5051635;28;20433;-75
2023/12/15 12:06:58;;;;;;;1999.90;999.90;;;8.20;99.90;;;;;;5045779;28;20781;-77
2023/12/15 12:09:25;;;;;;;1999.90;999.90;;;8.30;99.90;;;;;;5053160;28;20440;-76